sensor_id;sensor_type;location;lat;lon;timestamp;temperature;humidity
70676;DHT22;59069;52.242;20.900;2023-02-23T00:01:26;0.32;57.68
70676;DHT22;59069;52.242;20.900;2023-02-23T00:03:54;0.33;57.95
70676;DHT22;59069;52.242;20.900;2023-02-23T00:06:21;0.25;58.16
70676;DHT22;59069;52.242;20.900;2023-02-23T00:08:47;0.25;58.26
70676;DHT22;59069;52.242;20.900;2023-02-23T00:11:14;0.24;58.38
70676;DHT22;59069;52.242;20.900;2023-02-23T00:13:42;0.18;58.54
70676;DHT22;59069;52.242;20.900;2023-02-23T00:16:13;0.18;58.52
70676;DHT22;59069;52.242;20.900;2023-02-23T00:18:57;0.14;58.52
70676;DHT22;59069;52.242;20.900;2023-02-23T00:21:31;0.11;58.59
70676;DHT22;59069;52.242;20.900;2023-02-23T00:24:05;0.05;58.58
70676;DHT22;59069;52.242;20.900;2023-02-23T00:26:33;0.04;58.41
70676;DHT22;59069;52.242;20.900;2023-02-23T00:29:01;0.02;58.46
70676;DHT22;59069;52.242;20.900;2023-02-23T00:31:27;-0.06;58.66
70676;DHT22;59069;52.242;20.900;2023-02-23T00:33:58;-0.09;58.92
70676;DHT22;59069;52.242;20.900;2023-02-23T00:36:30;-0.10;59.15
70676;DHT22;59069;52.242;20.900;2023-02-23T00:38:58;-0.12;59.27
70676;DHT22;59069;52.242;20.900;2023-02-23T00:41:25;-0.13;59.23
70676;DHT22;59069;52.242;20.900;2023-02-23T00:43:57;-0.16;59.33
70676;DHT22;59069;52.242;20.900;2023-02-23T00:46:26;-0.19;59.53
70676;DHT22;59069;52.242;20.900;2023-02-23T00:48:53;-0.20;59.58
70676;DHT22;59069;52.242;20.900;2023-02-23T00:51:24;-0.20;59.72
70676;DHT22;59069;52.242;20.900;2023-02-23T00:53:59;-0.26;59.83
70676;DHT22;59069;52.242;20.900;2023-02-23T00:56:26;-0.27;60.04
70676;DHT22;59069;52.242;20.900;2023-02-23T00:58:52;-0.30;60.15
70676;DHT22;59069;52.242;20.900;2023-02-23T01:01:18;-0.33;60.16
70676;DHT22;59069;52.242;20.900;2023-02-23T01:03:44;-0.34;60.39
70676;DHT22;59069;52.242;20.900;2023-02-23T01:06:12;-0.36;60.51
70676;DHT22;59069;52.242;20.900;2023-02-23T01:08:41;-0.37;60.44
70676;DHT22;59069;52.242;20.900;2023-02-23T01:11:09;-0.38;60.53
70676;DHT22;59069;52.242;20.900;2023-02-23T01:13:36;-0.38;60.84
70676;DHT22;59069;52.242;20.900;2023-02-23T01:16:07;-0.44;60.77
70676;DHT22;59069;52.242;20.900;2023-02-23T01:18:33;-0.46;61.03
70676;DHT22;59069;52.242;20.900;2023-02-23T01:21:00;-0.44;61.14
70676;DHT22;59069;52.242;20.900;2023-02-23T01:23:25;-0.44;61.15
70676;DHT22;59069;52.242;20.900;2023-02-23T01:25:51;-0.49;61.17
70676;DHT22;59069;52.242;20.900;2023-02-23T01:28:17;-0.49;61.45
70676;DHT22;59069;52.242;20.900;2023-02-23T01:30:43;-0.49;61.58
70676;DHT22;59069;52.242;20.900;2023-02-23T01:33:09;-0.50;61.83
70676;DHT22;59069;52.242;20.900;2023-02-23T01:35:37;-0.50;61.80
70676;DHT22;59069;52.242;20.900;2023-02-23T01:38:03;-0.53;61.79
70676;DHT22;59069;52.242;20.900;2023-02-23T01:40:29;-0.52;61.97
70676;DHT22;59069;52.242;20.900;2023-02-23T01:43:05;-0.50;62.14
70676;DHT22;59069;52.242;20.900;2023-02-23T01:45:37;-0.52;62.12
70676;DHT22;59069;52.242;20.900;2023-02-23T01:48:29;-0.52;62.34
70676;DHT22;59069;52.242;20.900;2023-02-23T01:51:01;-0.54;62.45
70676;DHT22;59069;52.242;20.900;2023-02-23T01:53:32;-0.54;62.55
70676;DHT22;59069;52.242;20.900;2023-02-23T01:56:04;-0.54;62.85
70676;DHT22;59069;52.242;20.900;2023-02-23T01:58:40;-0.56;63.05
70676;DHT22;59069;52.242;20.900;2023-02-23T02:01:08;-0.56;63.13
70676;DHT22;59069;52.242;20.900;2023-02-23T02:03:43;-0.58;63.48
70676;DHT22;59069;52.242;20.900;2023-02-23T02:06:12;-0.60;63.54
70676;DHT22;59069;52.242;20.900;2023-02-23T02:08:43;-0.60;63.71
70676;DHT22;59069;52.242;20.900;2023-02-23T02:11:12;-0.58;63.72
70676;DHT22;59069;52.242;20.900;2023-02-23T02:14:00;-0.63;63.92
70676;DHT22;59069;52.242;20.900;2023-02-23T02:29:57;-0.61;65.17
70676;DHT22;59069;52.242;20.900;2023-02-23T02:43:44;-0.63;66.03
70676;DHT22;59069;52.242;20.900;2023-02-23T02:46:16;-0.64;66.15
70676;DHT22;59069;52.242;20.900;2023-02-23T02:49:05;-0.60;66.65
70676;DHT22;59069;52.242;20.900;2023-02-23T02:51:44;-0.58;67.08
70676;DHT22;59069;52.242;20.900;2023-02-23T02:54:25;-0.54;67.40
70676;DHT22;59069;52.242;20.900;2023-02-23T02:56:54;-0.50;67.42
70676;DHT22;59069;52.242;20.900;2023-02-23T02:59:22;-0.47;67.60
70676;DHT22;59069;52.242;20.900;2023-02-23T03:02:08;-0.41;67.61
70676;DHT22;59069;52.242;20.900;2023-02-23T03:04:56;-0.40;67.85
70676;DHT22;59069;52.242;20.900;2023-02-23T03:10:49;-0.34;68.12
70676;DHT22;59069;52.242;20.900;2023-02-23T03:17:36;-0.23;68.27
70676;DHT22;59069;52.242;20.900;2023-02-23T03:20:13;-0.23;68.04
70676;DHT22;59069;52.242;20.900;2023-02-23T03:23:09;-0.22;67.90
70676;DHT22;59069;52.242;20.900;2023-02-23T03:26:08;-0.23;68.27
70676;DHT22;59069;52.242;20.900;2023-02-23T03:32:09;-0.23;69.40
70676;DHT22;59069;52.242;20.900;2023-02-23T03:35:50;-0.19;69.73
70676;DHT22;59069;52.242;20.900;2023-02-23T03:38:55;-0.13;69.94
70676;DHT22;59069;52.242;20.900;2023-02-23T03:41:43;-0.09;70.08
70676;DHT22;59069;52.242;20.900;2023-02-23T03:44:31;-0.02;70.13
70676;DHT22;59069;52.242;20.900;2023-02-23T03:47:22;0.01;70.17
70676;DHT22;59069;52.242;20.900;2023-02-23T03:50:10;0.07;70.24
70676;DHT22;59069;52.242;20.900;2023-02-23T03:52:57;0.11;70.29
70676;DHT22;59069;52.242;20.900;2023-02-23T03:55:47;0.17;70.26
70676;DHT22;59069;52.242;20.900;2023-02-23T03:58:38;0.21;70.39
70676;DHT22;59069;52.242;20.900;2023-02-23T04:01:24;0.25;70.46
70676;DHT22;59069;52.242;20.900;2023-02-23T04:04:10;0.26;70.52
70676;DHT22;59069;52.242;20.900;2023-02-23T04:06:57;0.26;70.66
70676;DHT22;59069;52.242;20.900;2023-02-23T04:09:42;0.29;70.89
70676;DHT22;59069;52.242;20.900;2023-02-23T04:15:24;0.33;71.12
70676;DHT22;59069;52.242;20.900;2023-02-23T04:17:52;0.33;71.26
70676;DHT22;59069;52.242;20.900;2023-02-23T04:20:18;0.39;71.33
70676;DHT22;59069;52.242;20.900;2023-02-23T04:22:44;0.41;71.42
70676;DHT22;59069;52.242;20.900;2023-02-23T04:25:10;0.42;71.51
70676;DHT22;59069;52.242;20.900;2023-02-23T04:27:37;0.42;71.64
70676;DHT22;59069;52.242;20.900;2023-02-23T04:30:03;0.44;71.77
70676;DHT22;59069;52.242;20.900;2023-02-23T04:32:29;0.46;71.79
70676;DHT22;59069;52.242;20.900;2023-02-23T04:34:55;0.46;71.91
70676;DHT22;59069;52.242;20.900;2023-02-23T04:37:21;0.46;71.98
70676;DHT22;59069;52.242;20.900;2023-02-23T04:39:46;0.49;72.11
70676;DHT22;59069;52.242;20.900;2023-02-23T04:42:16;0.49;72.21
70676;DHT22;59069;52.242;20.900;2023-02-23T04:44:42;0.49;72.37
70676;DHT22;59069;52.242;20.900;2023-02-23T04:47:08;0.48;72.40
70676;DHT22;59069;52.242;20.900;2023-02-23T04:49:33;0.48;72.54
70676;DHT22;59069;52.242;20.900;2023-02-23T04:51:59;0.48;72.60
70676;DHT22;59069;52.242;20.900;2023-02-23T04:54:25;0.45;72.66
70676;DHT22;59069;52.242;20.900;2023-02-23T04:56:51;0.46;72.90
70676;DHT22;59069;52.242;20.900;2023-02-23T04:59:17;0.45;73.11
70676;DHT22;59069;52.242;20.900;2023-02-23T05:01:43;0.41;73.13
70676;DHT22;59069;52.242;20.900;2023-02-23T05:04:09;0.42;73.32
70676;DHT22;59069;52.242;20.900;2023-02-23T05:06:34;0.38;73.37
70676;DHT22;59069;52.242;20.900;2023-02-23T05:09:00;0.39;73.52
70676;DHT22;59069;52.242;20.900;2023-02-23T05:11:28;0.39;73.68
70676;DHT22;59069;52.242;20.900;2023-02-23T05:13:54;0.38;73.65
70676;DHT22;59069;52.242;20.900;2023-02-23T05:16:19;0.39;73.70
70676;DHT22;59069;52.242;20.900;2023-02-23T05:18:45;0.39;73.78
70676;DHT22;59069;52.242;20.900;2023-02-23T05:21:10;0.41;73.77
70676;DHT22;59069;52.242;20.900;2023-02-23T05:23:36;0.39;73.67
70676;DHT22;59069;52.242;20.900;2023-02-23T05:26:08;0.36;73.84
70676;DHT22;59069;52.242;20.900;2023-02-23T05:28:35;0.35;74.04
70676;DHT22;59069;52.242;20.900;2023-02-23T05:31:02;0.33;74.23
70676;DHT22;59069;52.242;20.900;2023-02-23T05:33:32;0.39;74.33
70676;DHT22;59069;52.242;20.900;2023-02-23T05:35:58;0.39;74.37
70676;DHT22;59069;52.242;20.900;2023-02-23T05:38:24;0.38;74.48
70676;DHT22;59069;52.242;20.900;2023-02-23T05:40:51;0.39;74.64
70676;DHT22;59069;52.242;20.900;2023-02-23T05:43:17;0.42;74.65
70676;DHT22;59069;52.242;20.900;2023-02-23T05:45:43;0.41;74.52
70676;DHT22;59069;52.242;20.900;2023-02-23T05:48:10;0.39;74.63
70676;DHT22;59069;52.242;20.900;2023-02-23T05:50:37;0.41;74.59
70676;DHT22;59069;52.242;20.900;2023-02-23T05:53:03;0.39;74.63
70676;DHT22;59069;52.242;20.900;2023-02-23T05:55:29;0.39;74.72
70676;DHT22;59069;52.242;20.900;2023-02-23T05:57:54;0.41;74.80
70676;DHT22;59069;52.242;20.900;2023-02-23T06:00:20;0.44;74.65
70676;DHT22;59069;52.242;20.900;2023-02-23T06:02:46;0.45;74.66
70676;DHT22;59069;52.242;20.900;2023-02-23T06:05:12;0.46;74.75
70676;DHT22;59069;52.242;20.900;2023-02-23T06:07:38;0.50;74.72
70676;DHT22;59069;52.242;20.900;2023-02-23T06:10:05;0.53;74.66
70676;DHT22;59069;52.242;20.900;2023-02-23T06:12:31;0.58;74.64
70676;DHT22;59069;52.242;20.900;2023-02-23T06:14:56;0.60;74.64
70676;DHT22;59069;52.242;20.900;2023-02-23T06:17:22;0.65;74.62
70676;DHT22;59069;52.242;20.900;2023-02-23T06:19:48;0.66;74.45
70676;DHT22;59069;52.242;20.900;2023-02-23T06:22:14;0.69;74.32
70676;DHT22;59069;52.242;20.900;2023-02-23T06:24:42;0.72;74.26
70676;DHT22;59069;52.242;20.900;2023-02-23T06:27:08;0.72;74.22
70676;DHT22;59069;52.242;20.900;2023-02-23T06:29:34;0.73;74.22
70676;DHT22;59069;52.242;20.900;2023-02-23T06:32:01;0.77;74.16
70676;DHT22;59069;52.242;20.900;2023-02-23T06:34:27;0.81;74.15
70676;DHT22;59069;52.242;20.900;2023-02-23T06:36:53;0.83;73.92
70676;DHT22;59069;52.242;20.900;2023-02-23T06:39:18;0.86;73.88
70676;DHT22;59069;52.242;20.900;2023-02-23T06:41:44;0.90;73.89
70676;DHT22;59069;52.242;20.900;2023-02-23T06:44:09;0.97;73.71
70676;DHT22;59069;52.242;20.900;2023-02-23T06:46:35;0.99;73.49
70676;DHT22;59069;52.242;20.900;2023-02-23T06:49:02;1.03;73.35
70676;DHT22;59069;52.242;20.900;2023-02-23T06:51:27;1.07;73.34
70676;DHT22;59069;52.242;20.900;2023-02-23T06:53:53;1.11;73.16
70676;DHT22;59069;52.242;20.900;2023-02-23T06:56:19;1.14;72.96
70676;DHT22;59069;52.242;20.900;2023-02-23T06:58:45;1.17;72.75
70676;DHT22;59069;52.242;20.900;2023-02-23T07:01:10;1.21;72.77
70676;DHT22;59069;52.242;20.900;2023-02-23T07:03:40;1.24;72.42
70676;DHT22;59069;52.242;20.900;2023-02-23T07:06:06;1.28;72.48
70676;DHT22;59069;52.242;20.900;2023-02-23T07:08:32;1.28;72.32
70676;DHT22;59069;52.242;20.900;2023-02-23T07:11:09;1.35;72.36
70676;DHT22;59069;52.242;20.900;2023-02-23T07:13:36;1.45;72.36
70676;DHT22;59069;52.242;20.900;2023-02-23T07:16:02;1.54;72.17
70676;DHT22;59069;52.242;20.900;2023-02-23T07:18:27;1.62;71.75
70676;DHT22;59069;52.242;20.900;2023-02-23T07:20:53;1.68;71.43
70676;DHT22;59069;52.242;20.900;2023-02-23T07:23:19;1.72;71.14
70676;DHT22;59069;52.242;20.900;2023-02-23T07:25:48;1.73;70.72
70676;DHT22;59069;52.242;20.900;2023-02-23T07:28:15;1.76;70.66
70676;DHT22;59069;52.242;20.900;2023-02-23T07:30:40;1.83;70.55
70676;DHT22;59069;52.242;20.900;2023-02-23T07:33:06;1.89;70.49
70676;DHT22;59069;52.242;20.900;2023-02-23T07:35:32;1.95;70.31
70676;DHT22;59069;52.242;20.900;2023-02-23T07:37:57;2.02;70.08
70676;DHT22;59069;52.242;20.900;2023-02-23T07:40:23;2.09;69.88
70676;DHT22;59069;52.242;20.900;2023-02-23T07:42:49;2.19;69.92
70676;DHT22;59069;52.242;20.900;2023-02-23T07:45:15;2.27;69.52
70676;DHT22;59069;52.242;20.900;2023-02-23T07:47:41;2.36;69.20
70676;DHT22;59069;52.242;20.900;2023-02-23T07:50:07;2.43;69.11
70676;DHT22;59069;52.242;20.900;2023-02-23T07:52:36;2.53;68.67
70676;DHT22;59069;52.242;20.900;2023-02-23T07:55:02;2.66;69.09
70676;DHT22;59069;52.242;20.900;2023-02-23T07:57:27;2.82;68.51
70676;DHT22;59069;52.242;20.900;2023-02-23T07:59:53;3.05;70.13
70676;DHT22;59069;52.242;20.900;2023-02-23T08:02:19;3.22;70.16
70676;DHT22;59069;52.242;20.900;2023-02-23T08:04:45;3.44;72.81
70676;DHT22;59069;52.242;20.900;2023-02-23T08:07:10;3.73;74.24
70676;DHT22;59069;52.242;20.900;2023-02-23T08:09:36;3.93;70.56
70676;DHT22;59069;52.242;20.900;2023-02-23T08:12:02;4.26;70.94
70676;DHT22;59069;52.242;20.900;2023-02-23T08:14:28;4.36;63.82
70676;DHT22;59069;52.242;20.900;2023-02-23T08:16:53;4.46;64.61
70676;DHT22;59069;52.242;20.900;2023-02-23T08:19:19;4.66;63.75
70676;DHT22;59069;52.242;20.900;2023-02-23T08:21:50;4.80;61.99
70676;DHT22;59069;52.242;20.900;2023-02-23T08:24:16;4.89;60.81
70676;DHT22;59069;52.242;20.900;2023-02-23T08:26:41;4.81;59.14
70676;DHT22;59069;52.242;20.900;2023-02-23T08:29:07;4.70;59.76
70676;DHT22;59069;52.242;20.900;2023-02-23T08:31:33;4.53;59.40
70676;DHT22;59069;52.242;20.900;2023-02-23T08:33:59;4.31;59.90
70676;DHT22;59069;52.242;20.900;2023-02-23T08:36:26;4.34;62.00
70676;DHT22;59069;52.242;20.900;2023-02-23T08:38:51;4.53;65.42
70676;DHT22;59069;52.242;20.900;2023-02-23T08:41:18;4.96;68.02
70676;DHT22;59069;52.242;20.900;2023-02-23T08:43:44;5.39;65.92
70676;DHT22;59069;52.242;20.900;2023-02-23T08:46:10;5.63;60.61
70676;DHT22;59069;52.242;20.900;2023-02-23T08:48:36;5.72;58.13
70676;DHT22;59069;52.242;20.900;2023-02-23T08:51:05;5.62;56.71
70676;DHT22;59069;52.242;20.900;2023-02-23T08:53:30;5.55;56.76
70676;DHT22;59069;52.242;20.900;2023-02-23T08:56:01;5.56;59.69
70676;DHT22;59069;52.242;20.900;2023-02-23T08:58:28;5.78;60.48
70676;DHT22;59069;52.242;20.900;2023-02-23T09:00:54;5.90;57.42
70676;DHT22;59069;52.242;20.900;2023-02-23T09:03:21;6.17;58.23
70676;DHT22;59069;52.242;20.900;2023-02-23T09:05:47;6.71;66.45
70676;DHT22;59069;52.242;20.900;2023-02-23T09:08:14;7.36;62.95
70676;DHT22;59069;52.242;20.900;2023-02-23T09:10:39;7.91;58.03
70676;DHT22;59069;52.242;20.900;2023-02-23T09:13:10;8.29;52.03
70676;DHT22;59069;52.242;20.900;2023-02-23T09:15:40;8.41;50.60
70676;DHT22;59069;52.242;20.900;2023-02-23T09:18:07;8.55;50.87
70676;DHT22;59069;52.242;20.900;2023-02-23T09:20:34;8.70;50.21
70676;DHT22;59069;52.242;20.900;2023-02-23T09:23:00;8.88;47.56
70676;DHT22;59069;52.242;20.900;2023-02-23T09:25:26;8.67;45.33
70676;DHT22;59069;52.242;20.900;2023-02-23T09:27:54;8.45;45.99
70676;DHT22;59069;52.242;20.900;2023-02-23T09:30:25;8.18;49.11
70676;DHT22;59069;52.242;20.900;2023-02-23T09:32:53;7.91;46.20
70676;DHT22;59069;52.242;20.900;2023-02-23T09:35:21;7.63;48.03
70676;DHT22;59069;52.242;20.900;2023-02-23T09:37:49;7.52;50.86
70676;DHT22;59069;52.242;20.900;2023-02-23T09:40:24;7.43;51.84
70676;DHT22;59069;52.242;20.900;2023-02-23T09:45:46;7.22;50.32
70676;DHT22;59069;52.242;20.900;2023-02-23T09:48:15;7.33;54.40
70676;DHT22;59069;52.242;20.900;2023-02-23T09:50:51;7.50;52.67
70676;DHT22;59069;52.242;20.900;2023-02-23T09:53:39;7.84;53.93
70676;DHT22;59069;52.242;20.900;2023-02-23T09:56:13;8.28;53.11
70676;DHT22;59069;52.242;20.900;2023-02-23T09:58:40;8.76;56.25
70676;DHT22;59069;52.242;20.900;2023-02-23T10:01:15;9.23;48.26
70676;DHT22;59069;52.242;20.900;2023-02-23T10:12:34;11.00;48.46
70676;DHT22;59069;52.242;20.900;2023-02-23T10:17:44;11.59;41.39
70676;DHT22;59069;52.242;20.900;2023-02-23T10:20:24;11.83;44.74
70676;DHT22;59069;52.242;20.900;2023-02-23T10:22:52;12.01;39.65
70676;DHT22;59069;52.242;20.900;2023-02-23T10:25:23;12.14;44.00
70676;DHT22;59069;52.242;20.900;2023-02-23T10:27:50;12.42;40.17
70676;DHT22;59069;52.242;20.900;2023-02-23T10:30:25;12.24;36.15
70676;DHT22;59069;52.242;20.900;2023-02-23T10:33:12;12.05;41.24
70676;DHT22;59069;52.242;20.900;2023-02-23T10:35:38;11.80;35.36
70676;DHT22;59069;52.242;20.900;2023-02-23T10:38:04;11.19;35.84
70676;DHT22;59069;52.242;20.900;2023-02-23T10:40:32;10.80;39.94
70676;DHT22;59069;52.242;20.900;2023-02-23T10:42:59;10.67;45.41
70676;DHT22;59069;52.242;20.900;2023-02-23T10:45:27;10.65;39.58
70676;DHT22;59069;52.242;20.900;2023-02-23T10:50:23;10.09;41.12
70676;DHT22;59069;52.242;20.900;2023-02-23T10:52:58;10.02;43.41
70676;DHT22;59069;52.242;20.900;2023-02-23T10:55:27;10.24;43.68
70676;DHT22;59069;52.242;20.900;2023-02-23T10:58:09;10.51;49.05
70676;DHT22;59069;52.242;20.900;2023-02-23T11:00:51;10.14;39.58
70676;DHT22;59069;52.242;20.900;2023-02-23T11:06:29;8.81;42.86
70676;DHT22;59069;52.242;20.900;2023-02-23T11:08:55;8.39;45.10
70676;DHT22;59069;52.242;20.900;2023-02-23T11:11:24;8.08;46.09
70676;DHT22;59069;52.242;20.900;2023-02-23T11:13:51;7.78;47.46
70676;DHT22;59069;52.242;20.900;2023-02-23T11:16:22;7.66;48.62
70676;DHT22;59069;52.242;20.900;2023-02-23T11:21:29;7.50;49.05
70676;DHT22;59069;52.242;20.900;2023-02-23T11:24:23;7.29;50.06
70676;DHT22;59069;52.242;20.900;2023-02-23T11:26:53;7.19;50.94
70676;DHT22;59069;52.242;20.900;2023-02-23T11:29:32;7.16;51.26
70676;DHT22;59069;52.242;20.900;2023-02-23T11:32:02;7.12;51.58
70676;DHT22;59069;52.242;20.900;2023-02-23T11:34:34;7.08;51.36
70676;DHT22;59069;52.242;20.900;2023-02-23T11:39:59;6.98;51.83
70676;DHT22;59069;52.242;20.900;2023-02-23T11:42:27;6.93;52.53
70676;DHT22;59069;52.242;20.900;2023-02-23T11:45:18;6.92;52.73
70676;DHT22;59069;52.242;20.900;2023-02-23T11:47:50;6.89;52.59
70676;DHT22;59069;52.242;20.900;2023-02-23T11:50:29;6.95;53.11
70676;DHT22;59069;52.242;20.900;2023-02-23T11:53:12;7.03;53.07
70676;DHT22;59069;52.242;20.900;2023-02-23T11:55:46;6.98;52.52
70676;DHT22;59069;52.242;20.900;2023-02-23T12:01:15;6.92;52.95
70676;DHT22;59069;52.242;20.900;2023-02-23T12:03:56;6.85;53.28
70676;DHT22;59069;52.242;20.900;2023-02-23T12:06:34;6.88;53.29
70676;DHT22;59069;52.242;20.900;2023-02-23T12:11:41;6.96;53.28
70676;DHT22;59069;52.242;20.900;2023-02-23T12:16:49;7.02;53.36
70676;DHT22;59069;52.242;20.900;2023-02-23T12:19:25;7.03;52.88
70676;DHT22;59069;52.242;20.900;2023-02-23T12:22:00;7.02;53.27
70676;DHT22;59069;52.242;20.900;2023-02-23T12:35:28;7.23;52.74
70676;DHT22;59069;52.242;20.900;2023-02-23T12:37:59;7.19;52.33
70676;DHT22;59069;52.242;20.900;2023-02-23T12:40:35;7.16;52.66
70676;DHT22;59069;52.242;20.900;2023-02-23T12:48:29;7.18;53.37
70676;DHT22;59069;52.242;20.900;2023-02-23T12:50:57;7.19;52.83
70676;DHT22;59069;52.242;20.900;2023-02-23T12:53:39;7.19;52.78
70676;DHT22;59069;52.242;20.900;2023-02-23T12:56:24;7.20;53.12
70676;DHT22;59069;52.242;20.900;2023-02-23T13:09:50;7.33;52.50
70676;DHT22;59069;52.242;20.900;2023-02-23T13:17:56;7.33;53.12
70676;DHT22;59069;52.242;20.900;2023-02-23T13:20:50;7.33;53.03
70676;DHT22;59069;52.242;20.900;2023-02-23T13:23:52;7.33;52.71
70676;DHT22;59069;52.242;20.900;2023-02-23T13:29:02;7.42;52.97
70676;DHT22;59069;52.242;20.900;2023-02-23T13:31:35;7.43;52.89
70676;DHT22;59069;52.242;20.900;2023-02-23T13:34:05;7.50;52.95
70676;DHT22;59069;52.242;20.900;2023-02-23T13:36:33;7.47;52.73
70676;DHT22;59069;52.242;20.900;2023-02-23T13:39:37;7.47;52.90
70676;DHT22;59069;52.242;20.900;2023-02-23T13:42:10;7.53;52.88
70676;DHT22;59069;52.242;20.900;2023-02-23T13:47:45;7.60;52.74
70676;DHT22;59069;52.242;20.900;2023-02-23T13:50:26;7.56;52.40
70676;DHT22;59069;52.242;20.900;2023-02-23T13:52:54;7.60;53.08
70676;DHT22;59069;52.242;20.900;2023-02-23T13:58:21;7.64;52.54
70676;DHT22;59069;52.242;20.900;2023-02-23T14:01:02;7.62;52.39
70676;DHT22;59069;52.242;20.900;2023-02-23T14:03:30;7.57;52.96
70676;DHT22;59069;52.242;20.900;2023-02-23T14:05:59;7.56;53.03
70676;DHT22;59069;52.242;20.900;2023-02-23T14:08:35;7.62;53.46
70676;DHT22;59069;52.242;20.900;2023-02-23T14:11:02;7.69;53.18
70676;DHT22;59069;52.242;20.900;2023-02-23T14:13:38;7.71;53.20
70676;DHT22;59069;52.242;20.900;2023-02-23T14:16:17;7.71;52.71
70676;DHT22;59069;52.242;20.900;2023-02-23T14:21:42;7.75;53.04
70676;DHT22;59069;52.242;20.900;2023-02-23T14:24:24;8.01;53.58
70676;DHT22;59069;52.242;20.900;2023-02-23T14:27:18;8.44;54.62
70676;DHT22;59069;52.242;20.900;2023-02-23T14:32:43;9.10;51.02
70676;DHT22;59069;52.242;20.900;2023-02-23T14:38:02;8.84;48.83
70676;DHT22;59069;52.242;20.900;2023-02-23T14:40:34;8.55;49.15
70676;DHT22;59069;52.242;20.900;2023-02-23T14:43:54;8.34;50.15
70676;DHT22;59069;52.242;20.900;2023-02-23T14:46:18;8.16;50.47
70676;DHT22;59069;52.242;20.900;2023-02-23T14:48:56;8.05;51.29
70676;DHT22;59069;52.242;20.900;2023-02-23T14:51:39;7.83;51.33
70676;DHT22;59069;52.242;20.900;2023-02-23T14:54:41;7.62;52.04
70676;DHT22;59069;52.242;20.900;2023-02-23T14:57:24;7.50;52.42
70676;DHT22;59069;52.242;20.900;2023-02-23T15:02:22;7.33;53.16
70676;DHT22;59069;52.242;20.900;2023-02-23T15:04:48;7.22;53.45
70676;DHT22;59069;52.242;20.900;2023-02-23T15:07:18;7.15;53.73
70676;DHT22;59069;52.242;20.900;2023-02-23T15:09:52;7.06;53.95
70676;DHT22;59069;52.242;20.900;2023-02-23T15:12:36;6.98;54.38
70676;DHT22;59069;52.242;20.900;2023-02-23T15:15:06;6.92;54.52
70676;DHT22;59069;52.242;20.900;2023-02-23T15:17:37;6.89;54.90
70676;DHT22;59069;52.242;20.900;2023-02-23T15:20:09;6.84;55.07
70676;DHT22;59069;52.242;20.900;2023-02-23T15:22:38;6.75;55.27
70676;DHT22;59069;52.242;20.900;2023-02-23T15:25:18;6.65;55.62
70676;DHT22;59069;52.242;20.900;2023-02-23T15:27:45;6.63;55.89
70676;DHT22;59069;52.242;20.900;2023-02-23T15:30:22;6.57;56.05
70676;DHT22;59069;52.242;20.900;2023-02-23T15:33:04;6.48;56.38
70676;DHT22;59069;52.242;20.900;2023-02-23T15:35:35;6.43;56.58
70676;DHT22;59069;52.242;20.900;2023-02-23T15:38:12;6.40;56.71
70676;DHT22;59069;52.242;20.900;2023-02-23T15:40:40;6.33;56.98
70676;DHT22;59069;52.242;20.900;2023-02-23T15:43:07;6.26;57.08
70676;DHT22;59069;52.242;20.900;2023-02-23T15:45:38;6.20;57.36
70676;DHT22;59069;52.242;20.900;2023-02-23T15:48:10;6.12;57.58
70676;DHT22;59069;52.242;20.900;2023-02-23T15:50:45;6.10;57.83
70676;DHT22;59069;52.242;20.900;2023-02-23T15:53:34;6.03;58.03
70676;DHT22;59069;52.242;20.900;2023-02-23T15:56:23;5.95;58.27
70676;DHT22;59069;52.242;20.900;2023-02-23T15:58:56;5.89;58.49
70676;DHT22;59069;52.242;20.900;2023-02-23T16:01:27;5.80;58.60
70676;DHT22;59069;52.242;20.900;2023-02-23T16:04:05;5.75;58.96
70676;DHT22;59069;52.242;20.900;2023-02-23T16:06:34;5.68;59.28
70676;DHT22;59069;52.242;20.900;2023-02-23T16:09:06;5.63;59.46
70676;DHT22;59069;52.242;20.900;2023-02-23T16:11:38;5.59;59.72
70676;DHT22;59069;52.242;20.900;2023-02-23T16:14:03;5.55;59.80
70676;DHT22;59069;52.242;20.900;2023-02-23T16:16:33;5.49;60.14
70676;DHT22;59069;52.242;20.900;2023-02-23T16:18:59;5.44;60.35
70676;DHT22;59069;52.242;20.900;2023-02-23T16:21:28;5.38;60.48
70676;DHT22;59069;52.242;20.900;2023-02-23T16:23:58;5.34;60.58
70676;DHT22;59069;52.242;20.900;2023-02-23T16:29:16;5.27;60.88
70676;DHT22;59069;52.242;20.900;2023-02-23T16:31:46;5.23;61.02
70676;DHT22;59069;52.242;20.900;2023-02-23T16:37:16;5.17;61.32
70676;DHT22;59069;52.242;20.900;2023-02-23T16:39:43;5.13;61.33
70676;DHT22;59069;52.242;20.900;2023-02-23T16:42:30;5.08;61.56
70676;DHT22;59069;52.242;20.900;2023-02-23T16:44:56;5.07;61.61
70676;DHT22;59069;52.242;20.900;2023-02-23T16:49:48;5.06;61.88
70676;DHT22;59069;52.242;20.900;2023-02-23T16:52:20;5.00;62.03
70676;DHT22;59069;52.242;20.900;2023-02-23T16:54:49;5.01;62.22
70676;DHT22;59069;52.242;20.900;2023-02-23T16:57:30;5.00;62.35
70676;DHT22;59069;52.242;20.900;2023-02-23T16:59:56;5.00;62.50
70676;DHT22;59069;52.242;20.900;2023-02-23T17:02:23;4.96;62.77
70676;DHT22;59069;52.242;20.900;2023-02-23T17:04:49;4.96;62.92
70676;DHT22;59069;52.242;20.900;2023-02-23T17:07:16;4.94;63.11
70676;DHT22;59069;52.242;20.900;2023-02-23T17:09:42;4.87;63.28
70676;DHT22;59069;52.242;20.900;2023-02-23T17:12:10;4.86;63.39
70676;DHT22;59069;52.242;20.900;2023-02-23T17:14:37;4.84;63.62
70676;DHT22;59069;52.242;20.900;2023-02-23T17:17:02;4.81;63.70
70676;DHT22;59069;52.242;20.900;2023-02-23T17:19:28;4.81;63.86
70676;DHT22;59069;52.242;20.900;2023-02-23T17:21:53;4.79;63.97
70676;DHT22;59069;52.242;20.900;2023-02-23T17:24:19;4.80;64.12
70676;DHT22;59069;52.242;20.900;2023-02-23T17:26:50;4.77;64.29
70676;DHT22;59069;52.242;20.900;2023-02-23T17:29:16;4.75;64.41
70676;DHT22;59069;52.242;20.900;2023-02-23T17:31:42;4.73;64.56
70676;DHT22;59069;52.242;20.900;2023-02-23T17:34:08;4.75;64.71
70676;DHT22;59069;52.242;20.900;2023-02-23T17:36:34;4.75;64.78
70676;DHT22;59069;52.242;20.900;2023-02-23T17:39:00;4.76;64.87
70676;DHT22;59069;52.242;20.900;2023-02-23T17:41:26;4.75;64.95
70676;DHT22;59069;52.242;20.900;2023-02-23T17:43:52;4.75;65.11
70676;DHT22;59069;52.242;20.900;2023-02-23T17:46:18;4.72;65.32
70676;DHT22;59069;52.242;20.900;2023-02-23T17:48:43;4.70;65.48
70676;DHT22;59069;52.242;20.900;2023-02-23T17:51:12;4.70;65.59
70676;DHT22;59069;52.242;20.900;2023-02-23T17:53:40;4.67;65.75
70676;DHT22;59069;52.242;20.900;2023-02-23T17:56:07;4.67;65.90
70676;DHT22;59069;52.242;20.900;2023-02-23T17:58:34;4.67;66.03
70676;DHT22;59069;52.242;20.900;2023-02-23T18:01:02;4.63;66.11
70676;DHT22;59069;52.242;20.900;2023-02-23T18:03:30;4.65;66.32
70676;DHT22;59069;52.242;20.900;2023-02-23T18:06:01;4.60;66.46